createdAt,value
2023-03-13T00:03:22.291Z,10.00
2023-03-13T00:06:49.589Z,11.00
2023-03-13T00:10:17.245Z,11.70
2023-03-13T00:13:45.044Z,10.90
2023-03-13T00:17:12.022Z,12.20
2023-03-13T00:20:39.037Z,11.30
2023-03-13T00:24:06.707Z,12.60
2023-03-13T00:27:36.490Z,13.60
2023-03-13T00:31:08.947Z,12.10
2023-03-13T00:34:36.404Z,14.20
2023-03-13T00:38:03.436Z,15.20
2023-03-13T00:41:32.246Z,14.10
2023-03-13T00:44:59.301Z,15.70
2023-03-13T00:48:26.992Z,14.70
2023-03-13T00:51:54.210Z,13.00
2023-03-13T00:55:21.245Z,16.90
2023-03-13T00:58:49.983Z,16.40
2023-03-13T01:02:17.255Z,16.50
2023-03-13T01:05:44.610Z,16.70
2023-03-13T01:09:13.806Z,18.00
2023-03-13T01:12:42.290Z,19.50
2023-03-13T01:16:11.835Z,18.60
2023-03-13T01:23:04.639Z,18.40
2023-03-13T01:26:32.154Z,17.80
2023-03-13T01:29:59.797Z,19.40
2023-03-13T01:33:27.257Z,19.30
2023-03-13T01:36:54.566Z,19.20
2023-03-13T01:40:22.325Z,20.40
2023-03-13T01:43:49.812Z,20.10
2023-03-13T01:47:17.701Z,19.00
2023-03-13T01:51:12.805Z,19.50
2023-03-13T01:54:43.777Z,20.30
2023-03-13T01:58:13.361Z,19.20
2023-03-13T02:01:42.547Z,20.10
2023-03-13T02:05:10.849Z,19.30
2023-03-13T02:08:44.035Z,18.70
2023-03-13T02:12:14.502Z,17.70
2023-03-13T02:15:43.541Z,18.10
2023-03-13T02:19:21.388Z,18.20
2023-03-13T02:22:54.416Z,18.90
2023-03-13T02:26:21.720Z,15.90
2023-03-13T02:29:48.950Z,16.90
2023-03-13T02:33:18.065Z,16.40
2023-03-13T02:36:47.451Z,14.90
2023-03-13T02:40:22.298Z,15.80
2023-03-13T02:43:50.064Z,16.00
2023-03-13T02:47:20.827Z,15.60
2023-03-13T02:50:48.081Z,14.50
2023-03-13T02:54:20.769Z,14.80
2023-03-13T02:57:48.550Z,14.40
2023-03-13T03:01:15.618Z,14.50
2023-03-13T03:04:43.264Z,14.10
2023-03-13T03:08:11.361Z,14.40
2023-03-13T03:11:39.299Z,14.10
2023-03-13T03:15:11.632Z,12.50
2023-03-13T03:18:42.669Z,12.60
2023-03-13T03:22:09.826Z,12.60
2023-03-13T03:25:36.983Z,11.90
2023-03-13T03:29:05.636Z,12.80
2023-03-13T03:32:33.018Z,11.10
2023-03-13T03:36:05.191Z,11.90
2023-03-13T03:39:32.685Z,11.00
2023-03-13T03:43:00.664Z,10.70
2023-03-13T03:46:29.000Z,10.90
2023-03-13T03:49:56.418Z,10.40
2023-03-13T03:53:23.993Z,11.10
2023-03-13T03:56:51.271Z,10.70
2023-03-13T04:00:20.904Z,10.60
2023-03-13T04:03:50.115Z,9.50
2023-03-13T04:07:19.089Z,10.30
2023-03-13T04:10:46.370Z,10.50
2023-03-13T04:14:13.930Z,10.10
2023-03-13T04:17:41.192Z,9.50
2023-03-13T04:21:10.304Z,9.20
2023-03-13T04:24:42.784Z,10.30
2023-03-13T04:28:10.349Z,10.30
2023-03-13T04:31:42.732Z,9.50
2023-03-13T04:35:30.361Z,9.50
2023-03-13T04:39:15.636Z,9.20
2023-03-13T04:43:10.392Z,8.80
2023-03-13T04:47:00.734Z,8.90
2023-03-13T04:50:45.944Z,9.10
2023-03-13T04:54:44.228Z,8.60
2023-03-13T04:58:22.263Z,8.10
2023-03-13T05:02:22.214Z,8.60
2023-03-13T05:05:49.453Z,8.50
2023-03-13T05:09:39.403Z,9.10
2023-03-13T05:13:30.158Z,9.50
2023-03-13T05:17:14.282Z,9.00
2023-03-13T05:24:56.361Z,8.10
2023-03-13T05:28:29.593Z,9.20
2023-03-13T05:32:15.359Z,9.00
2023-03-13T05:35:56.396Z,9.30
2023-03-13T05:39:24.115Z,8.80
2023-03-13T05:43:13.708Z,9.10
2023-03-13T05:46:47.919Z,8.80
2023-03-13T05:50:30.328Z,9.00
2023-03-13T05:54:19.427Z,9.80
2023-03-13T05:58:02.670Z,10.10
2023-03-13T06:01:56.066Z,9.90
2023-03-13T06:05:30.886Z,9.40
2023-03-13T06:08:59.668Z,11.60
2023-03-13T06:12:29.968Z,11.60
2023-03-13T06:15:58.799Z,10.80
2023-03-13T06:19:42.243Z,10.60
2023-03-13T06:23:09.245Z,10.20
2023-03-13T06:26:36.508Z,10.20
2023-03-13T06:30:04.033Z,9.60
2023-03-13T06:33:31.225Z,9.40
2023-03-13T06:36:58.963Z,10.40
2023-03-13T06:40:26.629Z,10.70
2023-03-13T06:43:53.615Z,8.90
2023-03-13T06:47:20.936Z,9.60
2023-03-13T06:50:48.103Z,9.80
2023-03-13T06:54:15.147Z,10.80
2023-03-13T06:57:42.331Z,9.30
2023-03-13T07:01:11.696Z,9.60
2023-03-13T07:04:38.828Z,10.60
2023-03-13T07:08:06.705Z,9.70
2023-03-13T07:11:34.070Z,9.70
2023-03-13T07:15:01.068Z,9.30
2023-03-13T07:18:28.572Z,8.60
2023-03-13T07:21:57.079Z,8.50
2023-03-13T07:25:24.293Z,9.40
2023-03-13T07:28:51.592Z,8.90
2023-03-13T07:32:19.059Z,9.00
2023-03-13T07:35:51.147Z,8.80
2023-03-13T07:39:18.347Z,9.40
2023-03-13T07:42:45.555Z,8.50
2023-03-13T07:46:16.012Z,8.50
2023-03-13T07:49:44.275Z,8.00
2023-03-13T07:53:14.166Z,8.10
2023-03-13T07:56:42.182Z,8.50
2023-03-13T08:00:16.746Z,8.60
2023-03-13T08:03:45.326Z,8.40
2023-03-13T08:07:13.540Z,9.10
2023-03-13T08:10:40.723Z,8.30
2023-03-13T08:14:08.028Z,8.40
2023-03-13T08:17:35.431Z,7.40
2023-03-13T08:21:06.398Z,8.50
2023-03-13T08:24:33.473Z,7.80
2023-03-13T08:28:02.479Z,9.00
2023-03-13T08:31:32.731Z,8.80
2023-03-13T08:34:59.733Z,8.10
2023-03-13T08:38:27.062Z,7.90
2023-03-13T08:41:54.108Z,8.20
2023-03-13T08:45:21.281Z,8.10
2023-03-13T08:48:52.435Z,7.80
2023-03-13T08:52:19.413Z,7.90
2023-03-13T08:55:53.322Z,7.80
2023-03-13T08:59:20.555Z,7.30
2023-03-13T09:02:47.576Z,8.40
2023-03-13T09:06:15.324Z,7.60
2023-03-13T09:09:42.439Z,7.90
2023-03-13T09:13:10.002Z,8.30
2023-03-13T09:16:37.376Z,7.80
2023-03-13T09:20:05.879Z,7.30
2023-03-13T09:23:33.006Z,7.60
2023-03-13T09:27:01.636Z,7.50
2023-03-13T09:30:29.131Z,8.50
2023-03-13T09:33:58.417Z,8.00
2023-03-13T09:37:26.036Z,7.50
2023-03-13T09:41:05.789Z,8.40
2023-03-13T09:44:40.209Z,8.60
2023-03-13T09:48:13.202Z,7.60
2023-03-13T09:51:44.821Z,7.80
2023-03-13T09:55:21.593Z,8.90
2023-03-13T09:58:55.065Z,8.30
2023-03-13T10:02:29.651Z,8.50
2023-03-13T10:05:59.690Z,8.00
2023-03-13T10:09:32.409Z,8.10
2023-03-13T10:13:11.530Z,8.90
2023-03-13T10:16:45.832Z,8.80
2023-03-13T10:20:22.381Z,9.80
2023-03-13T10:23:54.910Z,9.10
2023-03-13T10:27:21.967Z,9.50
2023-03-13T10:30:54.551Z,9.80
2023-03-13T10:34:21.896Z,10.10
2023-03-13T10:37:48.955Z,10.50
2023-03-13T10:41:27.866Z,10.00
2023-03-13T10:44:59.669Z,10.50
2023-03-13T10:48:31.379Z,12.30
2023-03-13T10:52:00.356Z,11.30
2023-03-13T10:55:28.598Z,10.80
2023-03-13T10:58:56.282Z,10.40
2023-03-13T11:02:34.076Z,10.50
2023-03-13T11:06:04.782Z,9.50
2023-03-13T11:09:32.394Z,9.50
2023-03-13T11:13:01.189Z,8.40
2023-03-13T11:16:30.692Z,8.60
2023-03-13T11:20:06.340Z,8.10
2023-03-13T11:23:40.801Z,9.20
2023-03-13T11:27:16.862Z,9.80
2023-03-13T11:31:02.769Z,9.80
2023-03-13T11:34:38.895Z,9.30
2023-03-13T11:38:14.553Z,9.20
2023-03-13T11:41:54.080Z,9.50
2023-03-13T11:49:24.453Z,10.20
2023-03-13T11:53:30.826Z,9.10
2023-03-13T11:57:14.699Z,10.80
2023-03-13T12:00:49.049Z,8.50
2023-03-13T12:04:23.847Z,9.40
2023-03-13T12:07:56.253Z,9.20
2023-03-13T12:11:28.897Z,8.70
2023-03-13T12:15:00.954Z,8.80
2023-03-13T12:18:34.430Z,9.00
2023-03-13T12:22:08.381Z,8.40
2023-03-13T12:25:41.116Z,7.80
2023-03-13T12:29:18.914Z,6.80
2023-03-13T12:32:54.001Z,6.60
2023-03-13T12:36:29.332Z,7.20
2023-03-13T12:40:00.492Z,6.50
2023-03-13T12:43:32.821Z,6.60
2023-03-13T12:47:09.471Z,7.00
2023-03-13T12:50:45.468Z,5.60
2023-03-13T12:54:46.419Z,5.80
2023-03-13T12:58:40.711Z,5.70
2023-03-13T13:02:20.836Z,6.00
2023-03-13T13:06:07.243Z,5.00
2023-03-13T13:09:37.242Z,5.70
2023-03-13T13:13:32.343Z,4.60
2023-03-13T13:17:16.468Z,5.00
2023-03-13T13:20:58.868Z,5.00
2023-03-13T13:24:52.928Z,4.70
2023-03-13T13:28:40.117Z,5.20
2023-03-13T13:32:15.337Z,4.80
2023-03-13T13:35:42.874Z,4.50
2023-03-13T13:39:34.009Z,4.70
2023-03-13T13:43:02.936Z,4.40
2023-03-13T13:46:33.460Z,4.30
2023-03-13T13:50:01.516Z,3.90
2023-03-13T13:53:34.812Z,4.50
2023-03-13T13:57:04.038Z,5.10
2023-03-13T14:00:35.970Z,4.50
2023-03-13T14:04:13.962Z,4.70
2023-03-13T14:08:01.372Z,5.00
2023-03-13T14:11:34.572Z,4.90
2023-03-13T14:15:15.868Z,5.70
2023-03-13T14:18:44.869Z,5.20
2023-03-13T14:22:14.416Z,4.30
2023-03-13T14:29:20.614Z,5.10
2023-03-13T14:32:48.088Z,4.00
2023-03-13T14:36:15.099Z,4.80
2023-03-13T14:39:48.763Z,4.80
2023-03-13T14:43:33.384Z,5.50
2023-03-13T14:47:05.505Z,4.80
2023-03-13T14:50:33.181Z,5.50
2023-03-13T14:54:01.918Z,5.20
2023-03-13T14:57:29.804Z,5.20
2023-03-13T15:00:58.926Z,5.20
2023-03-13T15:04:54.673Z,5.10
2023-03-13T15:08:24.071Z,4.80
2023-03-13T15:12:02.577Z,4.90
2023-03-13T15:15:29.766Z,4.50
2023-03-13T15:18:57.700Z,4.90
2023-03-13T15:22:30.145Z,4.20
2023-03-13T15:25:57.238Z,4.20
2023-03-13T15:29:24.362Z,3.80
2023-03-13T15:32:52.141Z,4.50
2023-03-13T15:36:19.424Z,4.80
2023-03-13T15:39:46.869Z,4.90
2023-03-13T15:43:14.715Z,3.90
2023-03-13T15:46:41.805Z,4.00
2023-03-13T15:50:12.339Z,4.00
2023-03-13T15:53:39.542Z,4.60
2023-03-13T15:57:06.668Z,4.80
2023-03-13T16:00:33.665Z,5.60
2023-03-13T16:04:00.791Z,4.40
2023-03-13T16:07:28.166Z,4.30
2023-03-13T16:10:55.960Z,4.60
2023-03-13T16:14:23.155Z,4.20
2023-03-13T16:17:50.665Z,3.70
2023-03-13T16:21:23.083Z,3.90
2023-03-13T16:24:50.132Z,3.90
2023-03-13T16:28:17.787Z,3.40
2023-03-13T16:31:45.110Z,4.00
2023-03-13T16:35:12.610Z,3.80
2023-03-13T16:38:39.600Z,3.50
2023-03-13T16:42:07.343Z,3.40
2023-03-13T16:45:34.378Z,4.10
2023-03-13T16:49:01.471Z,4.40
2023-03-13T16:52:28.717Z,4.10
2023-03-13T16:55:56.443Z,4.40
2023-03-13T16:59:26.967Z,4.10
2023-03-13T17:03:01.729Z,3.80
2023-03-13T17:06:33.296Z,3.60
2023-03-13T17:10:06.179Z,4.30
2023-03-13T17:13:33.631Z,4.10
2023-03-13T17:17:01.277Z,4.10
2023-03-13T17:20:32.390Z,4.80
2023-03-13T17:24:03.600Z,6.20
2023-03-13T17:27:46.480Z,5.90
2023-03-13T17:31:20.235Z,5.50
2023-03-13T17:34:48.345Z,6.10
2023-03-13T17:38:21.171Z,5.60
2023-03-13T17:41:48.695Z,5.60
2023-03-13T17:45:18.619Z,6.70
2023-03-13T17:48:47.565Z,6.50
2023-03-13T17:52:21.315Z,5.90
2023-03-13T17:55:51.672Z,6.80
2023-03-13T17:59:22.723Z,7.90
2023-03-13T18:02:50.509Z,7.10
2023-03-13T18:06:24.390Z,7.30
2023-03-13T18:09:57.590Z,6.40
2023-03-13T18:13:25.252Z,6.30
2023-03-13T18:16:57.315Z,6.00
2023-03-13T18:20:28.063Z,6.50
2023-03-13T18:24:00.403Z,5.90
2023-03-13T18:27:32.747Z,6.00
2023-03-13T18:31:01.405Z,7.50
2023-03-13T18:34:30.256Z,7.30
2023-03-13T18:38:00.121Z,7.00
2023-03-13T18:41:27.436Z,7.10
2023-03-13T18:44:54.725Z,6.70
2023-03-13T18:48:39.778Z,7.00
2023-03-13T18:52:11.703Z,7.60
2023-03-13T18:55:38.833Z,7.20
2023-03-13T18:59:06.352Z,6.70
2023-03-13T19:02:33.451Z,6.90
2023-03-13T19:06:01.384Z,7.00
2023-03-13T19:09:46.464Z,7.30
2023-03-13T19:13:16.412Z,6.90
2023-03-13T19:16:50.160Z,7.10
2023-03-13T19:20:21.058Z,7.80
2023-03-13T19:23:48.616Z,7.50
2023-03-13T19:27:18.270Z,7.50
2023-03-13T19:34:12.716Z,7.70
2023-03-13T19:37:40.406Z,7.50
2023-03-13T19:41:08.357Z,7.70
2023-03-13T19:44:36.033Z,7.80
2023-03-13T19:48:03.895Z,7.50
2023-03-13T19:51:32.805Z,7.60
2023-03-13T19:55:05.187Z,7.00
2023-03-13T19:58:32.648Z,7.40
2023-03-13T20:02:03.298Z,7.30
2023-03-13T20:05:30.932Z,7.10
2023-03-13T20:09:03.740Z,7.40
2023-03-13T20:12:31.262Z,7.30
2023-03-13T20:15:59.725Z,7.80
2023-03-13T20:19:56.016Z,7.40
2023-03-13T20:23:23.088Z,7.60
2023-03-13T20:26:50.432Z,7.50
2023-03-13T20:30:18.409Z,6.50
2023-03-13T20:33:45.743Z,6.50
2023-03-13T20:37:12.843Z,6.20
2023-03-13T20:40:39.973Z,6.40
2023-03-13T20:44:07.241Z,5.70
2023-03-13T20:47:34.531Z,5.30
2023-03-13T20:51:02.198Z,5.60
2023-03-13T20:54:29.495Z,5.10
2023-03-13T20:57:56.731Z,5.90
2023-03-13T21:01:26.055Z,5.60
2023-03-13T21:04:55.005Z,4.90
2023-03-13T21:08:22.467Z,5.70
2023-03-13T21:11:49.705Z,5.10
2023-03-13T21:15:17.512Z,4.90
2023-03-13T21:18:45.126Z,4.50
2023-03-13T21:22:12.949Z,4.70
2023-03-13T21:25:40.075Z,4.90
2023-03-13T21:29:09.308Z,5.00
2023-03-13T21:32:39.742Z,4.30
2023-03-13T21:36:07.867Z,4.50
2023-03-13T21:39:34.894Z,4.50
2023-03-13T21:43:04.288Z,4.20
2023-03-13T21:46:33.728Z,3.70
2023-03-13T21:50:01.432Z,4.20
2023-03-13T21:53:28.785Z,4.30
2023-03-13T21:56:57.295Z,4.80
2023-03-13T22:00:25.259Z,4.90
2023-03-13T22:03:52.881Z,4.10
2023-03-13T22:07:20.090Z,4.20
2023-03-13T22:10:52.351Z,4.60
2023-03-13T22:14:21.548Z,4.60
2023-03-13T22:17:48.607Z,4.00
2023-03-13T22:21:17.535Z,4.20
2023-03-13T22:24:44.790Z,4.60
2023-03-13T22:28:12.544Z,4.40
2023-03-13T22:31:39.770Z,3.90
2023-03-13T22:35:08.758Z,4.50
2023-03-13T22:38:39.037Z,3.80
2023-03-13T22:42:06.724Z,4.50
2023-03-13T22:45:34.123Z,4.40
2023-03-13T22:49:01.212Z,4.40
2023-03-13T22:52:31.093Z,4.90
2023-03-13T22:55:58.231Z,4.70
2023-03-13T22:59:25.449Z,4.80
2023-03-13T23:02:54.728Z,4.40
2023-03-13T23:06:24.151Z,4.10
2023-03-13T23:09:51.282Z,4.80
2023-03-13T23:13:18.457Z,4.70
2023-03-13T23:16:45.467Z,4.60
2023-03-13T23:20:14.630Z,4.80
2023-03-13T23:23:43.040Z,5.00
2023-03-13T23:27:10.051Z,5.30
2023-03-13T23:30:37.827Z,4.60
2023-03-13T23:34:05.003Z,4.70
2023-03-13T23:37:33.289Z,4.40
2023-03-13T23:41:00.363Z,3.90
2023-03-13T23:44:27.541Z,3.70
2023-03-13T23:47:57.046Z,3.00
2023-03-13T23:51:24.300Z,3.60
2023-03-13T23:54:53.256Z,3.50
2023-03-13T23:58:20.357Z,2.80
